Brush Creek, Arkansas
Current Conditions -  °F | °C
As of 10:56 AM on Friday 24 Oct 2014 (Local Time) from KADF Reporting Station
Clear Clear  
Wind Chill: 65°   Ceiling: Unl
Heat Index: 65°   Visibility: 10mi
Dew Point: 53°   Wind: 3mph
Humidity: 65%   Direction: NA
Pressure: 30.19"   Gusts: NA
Location:  34.2195°N, 92.6052°W
Report Text: KADF 241556Z AUTO VRB03KT 10SM CLR 18/12 A3019 RMK AO2 T01830116 SLP237
Loading
Personal Weather Stations






























Interactive Weather Map
Tropical Storm Tracking
New forecast layout! Learn more

10-Day Weather Forecast

Advertisements
Track Severe Weather on mobile